createdAt,value
2018-12-22T00:00:47.593Z,303.63
2018-12-22T00:01:47.359Z,303.55
2018-12-22T00:02:47.333Z,303.41
2018-12-22T00:03:47.351Z,303.60
2018-12-22T00:04:47.384Z,303.63
2018-12-22T00:05:47.351Z,303.64
2018-12-22T00:06:47.280Z,303.16
2018-12-22T00:07:47.322Z,303.86
2018-12-22T00:08:47.297Z,303.40
2018-12-22T00:09:47.294Z,303.43
2018-12-22T00:10:47.227Z,303.33
2018-12-22T00:11:47.252Z,302.95
2018-12-22T00:12:47.270Z,303.12
2018-12-22T00:13:47.244Z,302.92
2018-12-22T00:14:47.912Z,303.05
2018-12-22T00:15:47.282Z,302.71
2018-12-22T00:16:47.822Z,302.93
2018-12-22T00:17:47.162Z,302.75
2018-12-22T00:18:47.181Z,302.67
2018-12-22T00:19:47.182Z,302.52
2018-12-22T00:20:47.255Z,302.91
2018-12-22T00:21:47.111Z,302.42
2018-12-22T00:22:47.160Z,302.38
2018-12-22T00:23:47.075Z,302.90
2018-12-22T00:24:47.123Z,302.97
2018-12-22T00:25:47.159Z,302.95
2018-12-22T00:26:47.115Z,303.14
2018-12-22T00:27:47.060Z,302.84
2018-12-22T00:28:47.822Z,302.68
2018-12-22T00:29:47.049Z,302.95
2018-12-22T00:30:47.036Z,303.00
2018-12-22T00:31:47.103Z,302.43
2018-12-22T00:32:47.020Z,302.92
2018-12-22T00:33:47.013Z,302.89
2018-12-22T00:34:47.007Z,302.18
2018-12-22T00:35:47.011Z,302.06
2018-12-22T00:36:47.014Z,302.96
2018-12-22T00:37:46.968Z,303.16
2018-12-22T00:38:47.022Z,302.61
2018-12-22T00:39:46.988Z,303.12
2018-12-22T00:40:46.910Z,302.81
2018-12-22T00:41:47.041Z,302.98
2018-12-22T00:42:48.273Z,302.33
2018-12-22T00:43:47.055Z,302.07
2018-12-22T00:44:47.016Z,302.10
2018-12-22T00:45:47.829Z,301.79
2018-12-22T00:46:46.889Z,303.15
2018-12-22T00:47:48.146Z,302.60
2018-12-22T00:48:46.870Z,302.26
2018-12-22T00:49:46.870Z,302.30
2018-12-22T00:50:47.139Z,302.61
2018-12-22T00:51:46.819Z,302.11
2018-12-22T00:52:46.816Z,301.75
2018-12-22T00:53:46.812Z,302.02
2018-12-22T00:54:46.821Z,302.36
2018-12-22T00:55:47.397Z,302.46
2018-12-22T00:56:46.778Z,301.75
2018-12-22T00:57:46.744Z,302.13
2018-12-22T00:58:46.732Z,301.66
2018-12-22T00:59:47.437Z,302.31
2018-12-22T01:00:46.906Z,301.73
2018-12-22T01:01:46.722Z,301.85
2018-12-22T01:02:46.717Z,302.03
2018-12-22T01:03:46.692Z,301.44
2018-12-22T01:04:46.682Z,301.90
2018-12-22T01:05:46.989Z,301.45
2018-12-22T01:06:46.685Z,301.99
2018-12-22T01:07:46.713Z,301.95
2018-12-22T01:08:46.637Z,301.40
2018-12-22T01:09:46.623Z,301.89
2018-12-22T01:10:46.779Z,301.15
2018-12-22T01:11:46.634Z,301.73
2018-12-22T01:12:46.637Z,301.81
2018-12-22T01:13:46.585Z,300.91
2018-12-22T01:14:47.332Z,301.09
2018-12-22T01:15:46.646Z,301.52
2018-12-22T01:16:46.787Z,301.58
2018-12-22T01:17:46.766Z,301.54
2018-12-22T01:18:46.640Z,301.68
2018-12-22T01:19:46.542Z,302.17
2018-12-22T01:20:47.333Z,300.81
2018-12-22T01:21:46.512Z,300.88
2018-12-22T01:22:46.549Z,300.99
2018-12-22T01:23:47.334Z,301.79
2018-12-22T01:24:46.590Z,300.90
2018-12-22T01:25:46.481Z,301.23
2018-12-22T01:26:46.527Z,301.79
2018-12-22T01:27:46.478Z,301.18
2018-12-22T01:28:46.524Z,301.27
2018-12-22T01:29:46.402Z,301.34
2018-12-22T01:30:46.482Z,301.57
2018-12-22T01:31:46.411Z,302.10
2018-12-22T01:32:46.400Z,301.77
2018-12-22T01:33:47.838Z,300.90
2018-12-22T01:34:46.365Z,300.60
2018-12-22T01:35:46.970Z,301.25
2018-12-22T01:36:47.336Z,301.64
2018-12-22T01:37:46.329Z,301.47
2018-12-22T01:38:46.318Z,301.20
2018-12-22T01:39:46.722Z,300.86
2018-12-22T01:40:46.316Z,301.39
2018-12-22T01:41:46.942Z,301.33
2018-12-22T01:42:46.269Z,301.20
2018-12-22T01:43:46.307Z,301.69
2018-12-22T01:44:46.368Z,301.42
2018-12-22T01:45:46.276Z,301.50
2018-12-22T01:46:46.225Z,301.42
2018-12-22T01:47:46.843Z,301.80
2018-12-22T01:48:46.293Z,301.61
2018-12-22T01:49:46.366Z,301.65
2018-12-22T01:50:46.201Z,301.85
2018-12-22T01:51:46.225Z,301.78
2018-12-22T01:52:46.223Z,302.08
2018-12-22T01:53:46.268Z,301.45
2018-12-22T01:54:46.175Z,301.59
2018-12-22T01:55:46.385Z,301.44
2018-12-22T01:56:46.156Z,301.79
2018-12-22T01:57:46.098Z,302.12
2018-12-22T01:58:47.935Z,301.69
2018-12-22T01:59:46.104Z,301.74
2018-12-22T02:00:46.105Z,301.54
2018-12-22T02:01:46.092Z,301.83
2018-12-22T02:02:46.040Z,301.72
2018-12-22T02:03:46.110Z,301.72
2018-12-22T02:04:46.039Z,301.86
2018-12-22T02:05:46.012Z,301.92
2018-12-22T02:06:46.033Z,301.92
2018-12-22T02:07:46.013Z,301.73
2018-12-22T02:08:46.002Z,302.05
2018-12-22T02:09:46.005Z,302.02
2018-12-22T02:10:46.039Z,302.03
2018-12-22T02:11:45.973Z,301.96
2018-12-22T02:12:45.963Z,301.99
2018-12-22T02:13:45.919Z,302.07
2018-12-22T02:14:45.949Z,302.47
2018-12-22T02:15:45.954Z,302.13
2018-12-22T02:16:45.912Z,302.03
2018-12-22T02:17:45.891Z,302.38
2018-12-22T02:18:45.880Z,302.04
2018-12-22T02:19:45.856Z,302.23
2018-12-22T02:20:45.890Z,302.02
2018-12-22T02:21:45.822Z,301.78
2018-12-22T02:22:45.826Z,301.66
2018-12-22T02:23:45.867Z,302.23
2018-12-22T02:24:45.838Z,301.89
2018-12-22T02:25:45.858Z,302.24
2018-12-22T02:26:45.816Z,302.14
2018-12-22T02:27:45.785Z,302.12
2018-12-22T02:28:45.804Z,301.54
2018-12-22T02:29:45.769Z,301.66
2018-12-22T02:30:45.776Z,301.64
2018-12-22T02:31:45.743Z,301.87
2018-12-22T02:32:45.761Z,302.07
2018-12-22T02:33:45.744Z,302.11
2018-12-22T02:34:45.728Z,302.33
2018-12-22T02:35:45.714Z,302.96
2018-12-22T02:36:45.731Z,301.71
2018-12-22T02:37:45.717Z,301.42
2018-12-22T02:38:45.821Z,302.11
2018-12-22T02:39:45.662Z,302.11
2018-12-22T02:40:45.705Z,301.81
2018-12-22T02:41:45.630Z,302.42
2018-12-22T02:42:45.719Z,301.85
2018-12-22T02:43:45.648Z,302.40
2018-12-22T02:44:45.594Z,301.83
2018-12-22T02:45:45.633Z,302.47
2018-12-22T02:46:45.616Z,302.12
2018-12-22T02:47:45.604Z,301.95
2018-12-22T02:48:45.603Z,302.72
2018-12-22T02:49:45.576Z,301.93
2018-12-22T02:50:45.552Z,302.29
2018-12-22T02:51:45.575Z,302.47
2018-12-22T02:52:45.562Z,302.67
2018-12-22T02:53:45.507Z,301.96
2018-12-22T02:54:45.506Z,301.95
2018-12-22T02:55:45.480Z,302.26
2018-12-22T02:56:45.509Z,302.00
2018-12-22T02:57:45.477Z,302.33
2018-12-22T02:58:45.491Z,302.38
2018-12-22T02:59:45.437Z,302.52
2018-12-22T03:00:45.463Z,301.93
2018-12-22T03:01:45.573Z,302.16
2018-12-22T03:02:45.419Z,302.24
2018-12-22T03:03:45.431Z,302.86
2018-12-22T03:04:45.401Z,302.38
2018-12-22T03:05:45.365Z,302.04
2018-12-22T03:06:45.369Z,302.52
2018-12-22T03:07:45.405Z,302.05
2018-12-22T03:08:45.381Z,302.33
2018-12-22T03:09:45.399Z,302.33
2018-12-22T03:10:45.338Z,303.08
2018-12-22T03:11:45.337Z,302.83
2018-12-22T03:12:45.334Z,302.63
2018-12-22T03:13:45.308Z,302.36
2018-12-22T03:14:45.303Z,302.57
2018-12-22T03:15:45.328Z,303.44
2018-12-22T03:16:45.273Z,302.44
2018-12-22T03:17:45.281Z,302.65
2018-12-22T03:18:45.277Z,302.69
2018-12-22T03:19:45.240Z,303.16
2018-12-22T03:20:45.254Z,301.89
2018-12-22T03:21:45.249Z,302.66
2018-12-22T03:22:45.198Z,302.30
2018-12-22T03:23:45.202Z,302.63
2018-12-22T03:24:45.193Z,303.03
2018-12-22T03:25:45.243Z,302.03
2018-12-22T03:26:45.189Z,302.22
2018-12-22T03:27:45.167Z,302.27
2018-12-22T03:28:45.177Z,302.91
2018-12-22T03:29:45.137Z,302.14
2018-12-22T03:30:45.147Z,302.43
2018-12-22T03:31:45.134Z,302.58
2018-12-22T03:32:45.115Z,302.90
2018-12-22T03:33:45.101Z,302.78
2018-12-22T03:34:45.097Z,302.94
2018-12-22T03:35:45.091Z,302.58
2018-12-22T03:36:45.082Z,302.59
2018-12-22T03:37:45.051Z,302.86
2018-12-22T03:38:45.053Z,302.74
2018-12-22T03:39:45.032Z,302.58
2018-12-22T03:40:45.064Z,302.17
2018-12-22T03:41:45.038Z,302.43
2018-12-22T03:42:44.998Z,302.42
2018-12-22T03:43:44.988Z,302.56
2018-12-22T03:44:44.986Z,301.95
2018-12-22T03:45:44.968Z,302.26
2018-12-22T03:46:44.973Z,302.51
2018-12-22T03:47:44.993Z,302.51
2018-12-22T03:48:44.937Z,302.35
2018-12-22T03:49:44.930Z,302.74
2018-12-22T03:50:44.962Z,302.57
2018-12-22T03:51:44.917Z,302.75
2018-12-22T03:52:44.893Z,303.19
2018-12-22T03:53:44.945Z,302.62
2018-12-22T03:54:44.898Z,302.73
2018-12-22T03:55:44.878Z,302.69
2018-12-22T03:56:44.889Z,302.69
2018-12-22T03:57:44.837Z,302.14
2018-12-22T03:58:44.827Z,303.24
2018-12-22T03:59:44.837Z,302.44
2018-12-22T04:00:44.814Z,302.38
2018-12-22T04:01:44.809Z,302.90
2018-12-22T04:02:44.925Z,302.36
2018-12-22T04:03:44.787Z,302.47
2018-12-22T04:04:44.790Z,302.46
2018-12-22T04:05:44.774Z,302.37
2018-12-22T04:06:44.760Z,302.94
2018-12-22T04:07:44.771Z,302.99
2018-12-22T04:08:44.733Z,302.91
2018-12-22T04:09:44.832Z,303.10
2018-12-22T04:10:44.712Z,302.67
2018-12-22T04:11:44.743Z,302.58
2018-12-22T04:12:44.738Z,302.76
2018-12-22T04:13:44.696Z,302.72
2018-12-22T04:14:44.810Z,302.80
2018-12-22T04:15:44.648Z,303.20
2018-12-22T04:16:44.653Z,303.47
2018-12-22T04:17:44.666Z,302.91
2018-12-22T04:18:44.629Z,303.80
2018-12-22T04:19:44.657Z,302.93
2018-12-22T04:20:44.597Z,302.67
2018-12-22T04:21:44.641Z,302.90
2018-12-22T04:22:44.609Z,302.98
2018-12-22T04:23:44.605Z,302.62
2018-12-22T04:24:44.578Z,302.12
2018-12-22T04:25:44.666Z,302.40
2018-12-22T04:26:44.540Z,303.23
2018-12-22T04:27:44.562Z,302.77
2018-12-22T04:28:44.551Z,302.34
2018-12-22T04:29:44.523Z,302.64
2018-12-22T04:30:44.528Z,302.92
2018-12-22T04:31:44.517Z,302.41
2018-12-22T04:32:44.473Z,303.19
2018-12-22T04:33:44.481Z,302.69
2018-12-22T04:34:44.437Z,302.57
2018-12-22T04:35:44.429Z,302.77
2018-12-22T04:36:44.459Z,303.17
2018-12-22T04:37:44.437Z,303.47
2018-12-22T04:38:44.437Z,302.57
2018-12-22T04:39:44.400Z,302.12
2018-12-22T04:40:44.391Z,302.47
2018-12-22T04:41:44.412Z,302.74
2018-12-22T04:42:44.380Z,302.70
2018-12-22T04:43:44.411Z,303.12
2018-12-22T04:44:44.356Z,302.73
2018-12-22T04:45:44.410Z,302.85
2018-12-22T04:46:44.322Z,302.85
2018-12-22T04:47:44.377Z,302.78
2018-12-22T04:48:44.313Z,302.89
2018-12-22T04:49:44.314Z,303.00
2018-12-22T04:50:44.324Z,302.81
2018-12-22T04:51:44.334Z,302.42
2018-12-22T04:52:44.295Z,302.88
2018-12-22T04:53:44.269Z,302.47
2018-12-22T04:54:44.233Z,302.46
2018-12-22T04:55:44.259Z,302.98
2018-12-22T04:56:44.225Z,302.86
2018-12-22T04:57:44.227Z,302.83
2018-12-22T04:58:44.221Z,302.53
2018-12-22T04:59:44.232Z,303.29
2018-12-22T05:00:44.189Z,303.15
2018-12-22T05:01:44.191Z,302.51
2018-12-22T05:02:44.245Z,302.38
2018-12-22T05:03:44.157Z,303.48
2018-12-22T05:04:44.186Z,303.16
2018-12-22T05:05:44.127Z,303.01
2018-12-22T05:06:44.134Z,302.70
2018-12-22T05:07:44.102Z,302.70
2018-12-22T05:08:44.099Z,302.79
2018-12-22T05:09:44.091Z,303.11
2018-12-22T05:10:44.115Z,302.49
2018-12-22T05:11:44.075Z,303.21
2018-12-22T05:12:44.052Z,302.81
2018-12-22T05:13:44.036Z,302.81
2018-12-22T05:14:44.020Z,303.06
2018-12-22T05:15:44.064Z,302.56
2018-12-22T05:16:44.012Z,302.87
2018-12-22T05:17:44.018Z,302.83
2018-12-22T05:18:43.986Z,303.24
2018-12-22T05:19:44.015Z,303.29
2018-12-22T05:20:43.969Z,303.42
2018-12-22T05:21:43.962Z,302.91
2018-12-22T05:22:43.945Z,303.06
2018-12-22T05:23:43.949Z,303.24
2018-12-22T05:24:43.950Z,302.93
2018-12-22T05:25:43.946Z,302.59
2018-12-22T05:26:43.922Z,303.59
2018-12-22T05:27:43.893Z,303.60
2018-12-22T05:28:43.898Z,303.23
2018-12-22T05:29:51.590Z,303.27
2018-12-22T05:30:44.888Z,303.42
2018-12-22T05:31:43.893Z,302.56
2018-12-22T05:32:43.906Z,302.93
2018-12-22T05:33:43.850Z,303.35
2018-12-22T05:34:44.380Z,303.02
2018-12-22T05:35:43.814Z,302.77
2018-12-22T05:36:43.802Z,303.22
2018-12-22T05:37:43.971Z,303.58
2018-12-22T05:38:52.480Z,303.48
2018-12-22T05:39:43.774Z,303.36
2018-12-22T05:40:43.782Z,303.22
2018-12-22T05:41:43.779Z,303.33
2018-12-22T05:42:43.742Z,302.99
2018-12-22T05:43:43.791Z,303.39
2018-12-22T05:44:53.046Z,303.15
2018-12-22T05:45:53.057Z,302.68
2018-12-22T05:46:43.695Z,303.32
2018-12-22T05:47:53.075Z,303.28
2018-12-22T05:48:52.640Z,303.27
2018-12-22T05:49:53.143Z,303.68
2018-12-22T05:50:52.702Z,302.90
2018-12-22T05:51:43.683Z,303.14
2018-12-22T05:52:43.627Z,303.52
2018-12-22T05:53:52.810Z,302.79
2018-12-22T05:54:43.622Z,303.06
2018-12-22T05:55:43.719Z,303.14
2018-12-22T05:56:43.586Z,302.89
2018-12-22T05:57:43.562Z,302.79
2018-12-22T05:58:43.730Z,303.12
2018-12-22T05:59:43.582Z,303.17
2018-12-22T06:00:43.605Z,303.37
2018-12-22T06:01:43.517Z,303.25
2018-12-22T06:02:43.525Z,303.21
2018-12-22T06:03:43.514Z,302.85
2018-12-22T06:04:43.511Z,303.33
2018-12-22T06:05:43.493Z,303.28
2018-12-22T06:06:43.486Z,303.53
2018-12-22T06:07:43.458Z,303.39
2018-12-22T06:08:43.452Z,303.21
2018-12-22T06:09:43.485Z,303.04
2018-12-22T06:10:43.517Z,303.17
2018-12-22T06:11:52.289Z,302.77
2018-12-22T06:12:43.418Z,303.00
2018-12-22T06:13:52.802Z,302.97
2018-12-22T06:14:44.240Z,302.81
2018-12-22T06:15:43.414Z,303.26
2018-12-22T06:16:43.352Z,303.64
2018-12-22T06:17:52.831Z,303.17
2018-12-22T06:18:52.886Z,303.33
2018-12-22T06:19:52.417Z,303.33
2018-12-22T06:20:43.329Z,303.13
2018-12-22T06:21:43.324Z,302.85
2018-12-22T06:22:52.951Z,303.40
2018-12-22T06:23:53.503Z,303.20
2018-12-22T06:24:43.279Z,303.10
2018-12-22T06:25:43.323Z,303.46
2018-12-22T06:26:43.297Z,303.02
2018-12-22T06:27:43.261Z,302.87
2018-12-22T06:28:43.302Z,303.73
2018-12-22T06:29:43.268Z,303.16
2018-12-22T06:30:43.231Z,303.80
2018-12-22T06:31:43.246Z,303.04
2018-12-22T06:32:43.245Z,302.90
2018-12-22T06:33:51.509Z,302.93
2018-12-22T06:34:43.198Z,303.56
2018-12-22T06:35:43.225Z,302.98
2018-12-22T06:36:43.412Z,303.50
2018-12-22T06:37:43.177Z,304.06
2018-12-22T06:38:43.187Z,303.17
2018-12-22T06:39:43.148Z,302.59
2018-12-22T06:40:43.123Z,302.77
2018-12-22T06:41:43.182Z,303.06
2018-12-22T06:42:43.119Z,303.62
2018-12-22T06:43:43.213Z,303.33
2018-12-22T06:44:43.122Z,303.25
2018-12-22T06:45:43.168Z,303.06
2018-12-22T06:46:43.102Z,303.49
2018-12-22T06:47:43.109Z,302.95
2018-12-22T06:48:43.060Z,303.06
2018-12-22T06:49:43.110Z,302.86
2018-12-22T06:50:43.039Z,303.42
2018-12-22T06:51:43.048Z,303.39
2018-12-22T06:52:43.014Z,303.02
2018-12-22T06:53:43.034Z,302.68
2018-12-22T06:54:43.043Z,303.44
2018-12-22T06:55:43.047Z,303.27
2018-12-22T06:56:43.007Z,303.13
2018-12-22T06:57:42.981Z,303.00
2018-12-22T06:58:42.927Z,303.17
2018-12-22T06:59:43.066Z,303.13
2018-12-22T07:00:42.915Z,303.50
2018-12-22T07:01:42.972Z,302.96
2018-12-22T07:02:42.913Z,303.11
2018-12-22T07:03:42.924Z,303.43
2018-12-22T07:04:42.884Z,303.03
2018-12-22T07:05:42.928Z,303.68
2018-12-22T07:06:42.882Z,303.66
2018-12-22T07:07:42.895Z,303.30
2018-12-22T07:08:42.848Z,303.34
2018-12-22T07:09:42.872Z,303.54
2018-12-22T07:10:42.841Z,303.19
2018-12-22T07:11:42.844Z,303.71
2018-12-22T07:12:42.834Z,303.70
2018-12-22T07:13:42.872Z,303.21
2018-12-22T07:14:42.805Z,303.66
2018-12-22T07:15:42.830Z,302.92
2018-12-22T07:16:42.751Z,303.28
2018-12-22T07:17:42.745Z,303.64
2018-12-22T07:18:42.795Z,303.15
2018-12-22T07:19:42.906Z,303.44
2018-12-22T07:20:42.733Z,303.36
2018-12-22T07:21:42.708Z,303.35
2018-12-22T07:22:42.689Z,303.74
2018-12-22T07:23:42.717Z,303.70
2018-12-22T07:24:42.688Z,303.73
2018-12-22T07:25:42.662Z,302.87
2018-12-22T07:26:42.735Z,303.63
2018-12-22T07:27:42.674Z,303.21
2018-12-22T07:28:42.651Z,303.49
2018-12-22T07:29:42.696Z,303.64
2018-12-22T07:30:42.643Z,303.64
2018-12-22T07:31:42.577Z,303.41
2018-12-22T07:32:42.696Z,303.36
2018-12-22T07:33:42.608Z,303.70
2018-12-22T07:34:42.600Z,303.25
2018-12-22T07:35:42.570Z,303.46
2018-12-22T07:36:42.582Z,303.99
2018-12-22T07:37:42.532Z,303.75
2018-12-22T07:38:42.636Z,303.87
2018-12-22T07:39:42.552Z,303.44
2018-12-22T07:40:42.518Z,303.28
2018-12-22T07:41:42.472Z,302.97
2018-12-22T07:42:42.486Z,303.98
2018-12-22T07:43:42.478Z,303.69
2018-12-22T07:44:42.528Z,303.87
2018-12-22T07:45:42.436Z,303.23
2018-12-22T07:46:42.430Z,303.92
2018-12-22T07:47:42.435Z,303.89
2018-12-22T07:48:42.416Z,303.54
2018-12-22T07:49:42.997Z,303.66
2018-12-22T07:50:42.473Z,303.71
2018-12-22T07:51:42.400Z,303.53
2018-12-22T07:52:42.420Z,304.20
2018-12-22T07:53:42.426Z,303.68
2018-12-22T07:54:43.720Z,304.19
2018-12-22T07:55:42.419Z,303.96
2018-12-22T07:56:42.325Z,304.30
2018-12-22T07:57:42.425Z,304.14
2018-12-22T07:58:42.403Z,304.48
2018-12-22T07:59:42.342Z,304.13
2018-12-22T08:00:42.320Z,304.14
2018-12-22T08:01:42.349Z,303.85
2018-12-22T08:02:42.326Z,304.07
2018-12-22T08:03:42.267Z,303.84
2018-12-22T08:04:42.310Z,304.15
2018-12-22T08:05:42.265Z,303.65
2018-12-22T08:06:42.225Z,303.96
2018-12-22T08:07:42.215Z,304.51
2018-12-22T08:08:42.272Z,305.01
2018-12-22T08:09:42.243Z,305.57
2018-12-22T08:10:42.202Z,304.66
2018-12-22T08:11:42.241Z,304.48
2018-12-22T08:12:42.239Z,304.55
2018-12-22T08:13:42.176Z,305.10
2018-12-22T08:14:42.151Z,305.17
2018-12-22T08:15:43.119Z,305.59
2018-12-22T08:16:42.149Z,305.12
2018-12-22T08:17:42.189Z,305.15
2018-12-22T08:18:42.222Z,304.30
2018-12-22T08:19:42.197Z,305.10
2018-12-22T08:20:42.087Z,305.23
2018-12-22T08:21:42.121Z,305.21
2018-12-22T08:22:42.098Z,304.37
2018-12-22T08:23:42.066Z,305.27
2018-12-22T08:24:42.075Z,304.88
2018-12-22T08:25:42.064Z,304.36
2018-12-22T08:26:42.070Z,305.06
2018-12-22T08:27:42.007Z,305.40
2018-12-22T08:28:42.045Z,305.13
2018-12-22T08:29:42.038Z,305.26
2018-12-22T08:30:43.751Z,304.87
2018-12-22T08:31:42.002Z,304.44
2018-12-22T08:32:41.954Z,305.04
2018-12-22T08:33:42.014Z,305.02
2018-12-22T08:34:41.966Z,305.87
2018-12-22T08:35:41.958Z,305.24
2018-12-22T08:36:41.912Z,305.37
2018-12-22T08:37:41.900Z,305.25
2018-12-22T08:38:41.921Z,304.70
2018-12-22T08:39:41.903Z,304.86
2018-12-22T08:40:41.869Z,305.69
2018-12-22T08:41:41.857Z,305.76
2018-12-22T08:42:41.871Z,305.50
2018-12-22T08:43:41.843Z,304.90
2018-12-22T08:44:42.940Z,304.83
2018-12-22T08:45:41.913Z,305.25
2018-12-22T08:46:41.842Z,305.13
2018-12-22T08:47:41.786Z,305.40
2018-12-22T08:48:41.818Z,305.58
2018-12-22T08:49:41.776Z,304.73
2018-12-22T08:50:41.821Z,305.63
2018-12-22T08:51:41.757Z,305.25
2018-12-22T08:52:41.792Z,305.06
2018-12-22T08:53:41.745Z,305.58
2018-12-22T08:54:41.732Z,305.22
2018-12-22T08:55:41.700Z,304.92
2018-12-22T08:56:41.810Z,305.69
2018-12-22T08:57:41.715Z,305.12
2018-12-22T08:58:41.700Z,305.54
2018-12-22T08:59:41.691Z,305.79
2018-12-22T09:00:41.707Z,305.32
2018-12-22T09:01:41.695Z,305.35
2018-12-22T09:02:41.638Z,305.77
2018-12-22T09:03:41.628Z,305.81
2018-12-22T09:04:41.658Z,304.63
2018-12-22T09:05:41.624Z,304.67
2018-12-22T09:06:41.585Z,305.11
2018-12-22T09:07:41.607Z,305.32
2018-12-22T09:08:41.575Z,304.59
2018-12-22T09:09:41.568Z,304.37
2018-12-22T09:10:41.533Z,305.02
2018-12-22T09:11:41.582Z,304.60
2018-12-22T09:12:41.533Z,304.22
2018-12-22T09:13:41.508Z,304.13
2018-12-22T09:14:41.559Z,304.81
2018-12-22T09:15:41.493Z,305.12
2018-12-22T09:16:41.583Z,304.17
2018-12-22T09:17:41.558Z,304.70
2018-12-22T09:18:41.439Z,304.86
2018-12-22T09:19:41.466Z,304.38
2018-12-22T09:20:50.612Z,304.55
2018-12-22T09:21:41.465Z,304.05
2018-12-22T09:22:41.387Z,304.32
2018-12-22T09:23:41.389Z,304.97
2018-12-22T09:24:41.417Z,304.44
2018-12-22T09:25:41.370Z,304.44
2018-12-22T09:26:41.408Z,305.07
2018-12-22T09:27:41.406Z,305.10
2018-12-22T09:28:41.373Z,305.23
2018-12-22T09:29:41.368Z,304.54
2018-12-22T09:30:41.353Z,304.61
2018-12-22T09:31:41.327Z,304.82
2018-12-22T09:32:41.369Z,304.53
2018-12-22T09:33:41.349Z,304.28
2018-12-22T09:34:41.346Z,303.87
2018-12-22T09:35:41.273Z,304.57
2018-12-22T09:36:41.281Z,304.11
2018-12-22T09:37:41.266Z,303.42
2018-12-22T09:38:41.273Z,303.74
2018-12-22T09:39:41.253Z,303.55
2018-12-22T09:40:41.332Z,303.57
2018-12-22T09:41:41.331Z,303.51
2018-12-22T09:42:41.343Z,303.20
2018-12-22T09:43:41.327Z,303.55
2018-12-22T09:44:41.237Z,303.71
2018-12-22T09:45:41.190Z,303.88
2018-12-22T09:46:41.220Z,302.68
2018-12-22T09:47:41.220Z,303.23
2018-12-22T09:48:41.161Z,303.04
2018-12-22T09:49:41.126Z,303.72
2018-12-22T09:50:41.144Z,303.59
2018-12-22T09:51:41.123Z,303.49
2018-12-22T09:52:41.121Z,303.42
2018-12-22T09:53:41.172Z,304.01
2018-12-22T09:54:42.049Z,303.61
2018-12-22T09:55:41.179Z,303.64
2018-12-22T09:56:41.203Z,303.70
2018-12-22T09:57:41.047Z,303.06
2018-12-22T09:58:41.073Z,303.30
2018-12-22T09:59:41.063Z,303.03
2018-12-22T10:00:41.030Z,302.93
2018-12-22T10:01:41.038Z,303.22
2018-12-22T10:02:41.013Z,303.15
2018-12-22T10:03:40.987Z,303.77
2018-12-22T10:04:41.004Z,302.84
2018-12-22T10:05:40.977Z,302.98
2018-12-22T10:06:40.971Z,302.84
2018-12-22T10:07:40.985Z,303.38
2018-12-22T10:08:41.060Z,303.41
2018-12-22T10:09:41.315Z,302.98
2018-12-22T10:10:50.890Z,303.41
2018-12-22T10:11:42.694Z,302.95
2018-12-22T10:12:40.906Z,303.42
2018-12-22T10:13:40.882Z,303.95
2018-12-22T10:14:40.880Z,302.98
2018-12-22T10:15:41.089Z,303.41
2018-12-22T10:16:40.933Z,302.78
2018-12-22T10:17:40.925Z,302.45
2018-12-22T10:18:40.876Z,302.92
2018-12-22T10:19:40.856Z,302.96
2018-12-22T10:20:41.061Z,302.17
2018-12-22T10:21:40.799Z,302.19
2018-12-22T10:22:40.819Z,302.69
2018-12-22T10:23:40.781Z,302.75
2018-12-22T10:24:40.801Z,302.94
2018-12-22T10:25:40.741Z,302.67
2018-12-22T10:26:40.750Z,302.57
2018-12-22T10:27:40.817Z,301.85
2018-12-22T10:28:40.721Z,302.63
2018-12-22T10:29:40.764Z,302.67
2018-12-22T10:30:40.674Z,302.22
2018-12-22T10:31:40.782Z,302.44
2018-12-22T10:32:40.687Z,302.08
2018-12-22T10:33:40.675Z,303.36
2018-12-22T10:34:40.656Z,302.22
2018-12-22T10:35:40.651Z,301.30
2018-12-22T10:36:40.633Z,301.70
2018-12-22T10:37:40.666Z,302.67
2018-12-22T10:38:40.607Z,302.97
2018-12-22T10:39:40.642Z,302.58
2018-12-22T10:40:40.638Z,302.32
2018-12-22T10:41:40.589Z,302.69
2018-12-22T10:42:40.754Z,302.48
2018-12-22T10:43:40.625Z,302.53
2018-12-22T10:44:40.598Z,303.45
2018-12-22T10:45:40.561Z,302.75
2018-12-22T10:46:40.548Z,303.33
2018-12-22T10:47:40.536Z,302.40
2018-12-22T10:48:40.554Z,303.24
2018-12-22T10:49:40.526Z,302.81
2018-12-22T10:50:40.493Z,302.87
2018-12-22T10:51:40.487Z,302.95
2018-12-22T10:52:40.551Z,303.44
2018-12-22T10:53:40.474Z,303.50
2018-12-22T10:54:40.473Z,303.20
2018-12-22T10:55:40.448Z,302.66
2018-12-22T10:56:40.413Z,302.86
2018-12-22T10:57:40.423Z,302.86
2018-12-22T10:58:40.453Z,302.77
2018-12-22T10:59:40.410Z,303.26
2018-12-22T11:00:40.392Z,303.43
2018-12-22T11:01:40.354Z,303.55
2018-12-22T11:02:40.360Z,304.06
2018-12-22T11:03:40.422Z,303.16
2018-12-22T11:04:40.335Z,302.82
2018-12-22T11:05:41.069Z,302.99
2018-12-22T11:06:40.411Z,302.96
2018-12-22T11:07:40.316Z,303.04
2018-12-22T11:09:58.450Z,300.62
2018-12-22T11:10:58.384Z,303.36
2018-12-22T11:11:58.387Z,303.43
2018-12-22T11:12:58.373Z,303.71
2018-12-22T11:13:58.347Z,303.21
2018-12-22T11:14:58.316Z,303.28
2018-12-22T11:15:58.321Z,303.68
2018-12-22T11:16:58.276Z,303.55
2018-12-22T11:17:58.375Z,303.65
2018-12-22T11:18:58.301Z,303.96
2018-12-22T11:20:07.725Z,303.70
2018-12-22T11:20:58.280Z,303.69
2018-12-22T11:21:58.239Z,303.45
2018-12-22T11:22:58.232Z,303.22
2018-12-22T11:23:58.206Z,303.41
2018-12-22T11:24:58.204Z,303.85
2018-12-22T11:25:58.195Z,304.48
2018-12-22T11:26:58.201Z,303.23
2018-12-22T11:27:58.158Z,304.12
2018-12-22T11:28:58.160Z,303.48
2018-12-22T11:29:58.137Z,303.37
2018-12-22T11:30:58.126Z,304.63
2018-12-22T11:32:00.137Z,303.73
2018-12-22T11:32:58.139Z,303.84
2018-12-22T11:33:58.121Z,303.40
2018-12-22T11:34:58.127Z,304.24
2018-12-22T11:35:58.134Z,304.19
2018-12-22T11:36:58.131Z,303.96
2018-12-22T11:37:58.056Z,303.31
2018-12-22T11:38:58.063Z,303.30
2018-12-22T11:39:59.126Z,303.62
2018-12-22T11:40:58.074Z,303.11
2018-12-22T11:41:58.716Z,303.41
2018-12-22T11:42:58.065Z,303.53
2018-12-22T11:43:58.015Z,303.05
2018-12-22T11:44:58.055Z,303.73
2018-12-22T11:45:57.988Z,303.24
2018-12-22T11:46:57.996Z,303.52
2018-12-22T11:47:58.033Z,303.56
2018-12-22T11:48:57.946Z,303.30
2018-12-22T11:49:57.970Z,303.70
2018-12-22T11:50:57.984Z,303.75
2018-12-22T11:51:57.960Z,303.14
2018-12-22T11:52:57.944Z,303.54
2018-12-22T11:53:57.945Z,303.99
2018-12-22T11:54:57.894Z,303.35
2018-12-22T11:55:57.890Z,303.88
2018-12-22T11:56:57.871Z,303.98
2018-12-22T11:57:57.847Z,303.40
2018-12-22T11:58:57.862Z,303.73
2018-12-22T11:59:57.863Z,303.63
2018-12-22T12:00:58.816Z,303.29
2018-12-22T12:01:57.818Z,303.06
2018-12-22T12:02:57.839Z,303.17
2018-12-22T12:03:57.883Z,302.42
2018-12-22T12:04:58.634Z,303.00
2018-12-22T12:05:57.780Z,303.95
2018-12-22T12:06:57.767Z,303.33
2018-12-22T12:07:57.781Z,303.32
2018-12-22T12:08:58.685Z,303.27
2018-12-22T12:09:57.883Z,303.42
2018-12-22T12:10:57.721Z,303.48
2018-12-22T12:11:57.730Z,303.85
2018-12-22T12:12:57.703Z,303.20
2018-12-22T12:13:57.683Z,302.96
2018-12-22T12:14:57.733Z,302.95
2018-12-22T12:15:57.665Z,303.03
2018-12-22T12:16:57.685Z,302.72
2018-12-22T12:17:57.635Z,303.05
2018-12-22T12:18:57.665Z,302.80
2018-12-22T12:19:57.632Z,302.33
2018-12-22T12:20:57.624Z,303.07
2018-12-22T12:21:57.608Z,302.98
2018-12-22T12:22:57.595Z,302.82
2018-12-22T12:23:57.589Z,302.75
2018-12-22T12:24:57.586Z,302.62
2018-12-22T12:25:57.596Z,302.60
2018-12-22T12:26:57.573Z,302.79
2018-12-22T12:27:57.560Z,302.72
2018-12-22T12:28:57.536Z,303.11
2018-12-22T12:29:57.528Z,303.45